Time;durP1;ratioP1;P1;durP2;ratioP2;P2;SDS_P1;SDS_P2;PMS_P1;PMS_P2;Temp;Humidity;BMP_temperature;BMP_pressure;BME280_temperature;BME280_humidity;BME280_pressure;Samples;Min_cycle;Max_cycle;Signal;HPM_P1;HPM_P2
2021/10/30 00:02:18;;;;;;;0.40;0.40;;;;;;;10.82;79.99;100614.09;4959870;29;20037;-69
2021/10/30 00:04:43;;;;;;;0.30;0.30;;;;;;;10.78;79.98;100620.09;4958317;28;20038;-70
2021/10/30 00:07:08;;;;;;;0.60;0.47;;;;;;;10.74;79.85;100615.66;4958827;28;20046;-70
2021/10/30 00:09:35;;;;;;;0.30;0.30;;;;;;;10.72;80.11;100619.97;4959768;28;20035;-69
2021/10/30 00:12:01;;;;;;;0.50;0.50;;;;;;;10.73;79.96;100619.13;4955044;29;20036;-69
2021/10/30 00:14:26;;;;;;;0.57;0.57;;;;;;;10.70;80.25;100616.41;4958123;28;20386;-70
2021/10/30 00:16:52;;;;;;;0.40;0.40;;;;;;;10.69;80.24;100612.03;4958095;28;20031;-70
2021/10/30 00:19:17;;;;;;;0.43;0.43;;;;;;;10.76;80.03;100613.09;4968798;28;20089;-70
2021/10/30 00:21:43;;;;;;;0.50;0.50;;;;;;;10.74;80.02;100606.91;4966025;28;20031;-69
2021/10/30 00:24:08;;;;;;;2.43;0.53;;;;;;;10.76;80.16;100605.22;4958316;28;20297;-70
2021/10/30 00:26:34;;;;;;;0.30;0.30;;;;;;;10.85;79.52;100608.91;4959921;28;20026;-70
2021/10/30 00:29:00;;;;;;;0.30;0.30;;;;;;;10.86;79.41;100610.69;4954649;28;20071;-70
2021/10/30 00:31:25;;;;;;;0.73;0.53;;;;;;;10.88;79.91;100615.97;4946756;28;20339;-70
2021/10/30 00:33:51;;;;;;;1.37;0.67;;;;;;;10.91;79.50;100612.53;4956049;28;20078;-70
2021/10/30 00:36:16;;;;;;;0.50;0.50;;;;;;;10.96;79.40;100605.69;4958138;28;20105;-70
2021/10/30 00:38:41;;;;;;;0.57;0.57;;;;;;;11.03;78.78;100610.22;4958918;28;20297;-69
2021/10/30 00:41:07;;;;;;;0.40;0.40;;;;;;;11.10;78.67;100611.22;4958266;28;20078;-70
2021/10/30 00:43:33;;;;;;;0.50;0.50;;;;;;;11.17;78.13;100605.28;4958927;28;20027;-69
2021/10/30 00:45:59;;;;;;;0.40;0.40;;;;;;;11.22;78.11;100608.00;4957413;28;20129;-70
2021/10/30 00:48:24;;;;;;;0.43;0.43;;;;;;;11.25;77.53;100605.44;4958944;28;20445;-70
2021/10/30 00:50:50;;;;;;;0.63;0.63;;;;;;;11.34;76.97;100604.75;4958926;28;20171;-74
2021/10/30 00:53:17;;;;;;;0.47;0.47;;;;;;;11.38;76.79;100617.06;4958339;28;20031;-72
2021/10/30 00:55:44;;;;;;;0.40;0.40;;;;;;;11.36;77.18;100603.94;4952946;28;20421;-70
2021/10/30 00:58:13;;;;;;;0.40;0.40;;;;;;;11.33;77.06;100598.63;4957948;28;20046;-70
2021/10/30 01:00:39;;;;;;;0.30;0.30;;;;;;;11.33;76.80;100592.50;4938744;29;20039;-71
2021/10/30 01:03:06;;;;;;;0.60;0.60;;;;;;;11.36;76.44;100590.84;4950782;29;20035;-72
2021/10/30 01:05:32;;;;;;;0.33;0.33;;;;;;;11.40;76.61;100583.94;4958374;28;20346;-70
2021/10/30 01:07:57;;;;;;;0.73;0.70;;;;;;;11.43;76.72;100576.13;4958608;28;20035;-70
2021/10/30 01:10:23;;;;;;;0.30;0.30;;;;;;;11.43;76.88;100576.13;4957396;28;20039;-70
2021/10/30 01:12:48;;;;;;;0.43;0.43;;;;;;;11.46;76.86;100575.28;4958353;28;20034;-69
2021/10/30 01:15:13;;;;;;;0.67;0.67;;;;;;;11.41;76.81;100569.97;4957658;29;20038;-72
2021/10/30 01:17:39;;;;;;;0.53;0.53;;;;;;;11.39;77.31;100569.91;4957813;28;20034;-70
2021/10/30 01:20:05;;;;;;;0.33;0.33;;;;;;;11.35;77.51;100562.88;4954876;29;20086;-70
2021/10/30 01:22:35;;;;;;;0.60;0.60;;;;;;;11.34;77.80;100561.06;4955623;28;20031;-70
2021/10/30 01:25:01;;;;;;;0.50;0.50;;;;;;;11.36;77.29;100566.34;4957762;29;20034;-69
2021/10/30 01:27:26;;;;;;;0.60;0.60;;;;;;;11.43;77.02;100559.47;4959249;28;20023;-70
2021/10/30 01:29:51;;;;;;;0.30;0.30;;;;;;;11.46;77.00;100557.81;4958397;29;20074;-70
2021/10/30 01:32:20;;;;;;;0.40;0.40;;;;;;;11.43;77.09;100563.00;4954726;28;20401;-69
2021/10/30 01:34:46;;;;;;;0.53;0.53;;;;;;;11.41;77.75;100560.34;4958080;29;20442;-70
2021/10/30 01:37:12;;;;;;;0.40;0.40;;;;;;;11.45;77.25;100555.19;4954220;28;20054;-69
2021/10/30 01:39:38;;;;;;;0.40;0.40;;;;;;;11.48;77.41;100558.75;4958490;28;20111;-70
2021/10/30 01:42:03;;;;;;;0.40;0.40;;;;;;;11.52;77.32;100554.44;4956373;29;20099;-71
2021/10/30 01:44:29;;;;;;;0.40;0.40;;;;;;;11.51;77.34;100557.91;4954590;29;20379;-70
2021/10/30 01:47:00;;;;;;;0.50;0.50;;;;;;;11.55;77.00;100557.13;4957960;28;20106;-71
2021/10/30 01:49:26;;;;;;;0.30;0.30;;;;;;;11.50;77.78;100556.13;4957577;29;20089;-70
2021/10/30 01:51:52;;;;;;;0.30;0.30;;;;;;;11.50;77.26;100543.03;4958529;28;20055;-70
2021/10/30 01:54:17;;;;;;;0.40;0.40;;;;;;;11.48;77.51;100543.03;4958145;29;20074;-70
2021/10/30 01:56:43;;;;;;;0.40;0.40;;;;;;;11.43;77.59;100533.28;4957989;29;20027;-70
2021/10/30 01:59:08;;;;;;;0.40;0.40;;;;;;;11.41;77.48;100534.13;4957854;29;20394;-70
2021/10/30 02:01:34;;;;;;;0.57;0.57;;;;;;;11.40;77.80;100541.97;4958172;29;20320;-70
2021/10/30 02:03:59;;;;;;;0.27;0.27;;;;;;;11.37;77.72;100524.44;4958484;28;20102;-71
2021/10/30 02:06:25;;;;;;;0.50;0.50;;;;;;;11.36;77.69;100509.56;4957373;28;20038;-71
2021/10/30 02:08:50;;;;;;;0.50;0.50;;;;;;;11.37;77.73;100515.69;4958679;28;20028;-71
2021/10/30 02:11:16;;;;;;;0.40;0.40;;;;;;;11.41;77.38;100500.03;4958483;28;20039;-70
2021/10/30 02:13:41;;;;;;;0.40;0.40;;;;;;;11.34;77.74;100495.53;4957753;29;20035;-69
2021/10/30 02:16:07;;;;;;;0.53;0.53;;;;;;;11.31;77.69;100499.81;4941073;29;20050;-70
2021/10/30 02:18:32;;;;;;;0.40;0.40;;;;;;;11.24;78.05;100493.59;4958061;28;20106;-70
2021/10/30 02:20:57;;;;;;;0.40;0.40;;;;;;;11.20;78.09;100497.88;4957580;29;20031;-69
2021/10/30 02:23:23;;;;;;;0.30;0.30;;;;;;;11.14;78.27;100497.75;4959485;28;20031;-70
2021/10/30 02:25:48;;;;;;;0.20;0.20;;;;;;;11.08;78.87;100490.66;4962347;28;20039;-70
2021/10/30 02:28:17;;;;;;;0.57;0.57;;;;;;;11.06;78.75;100489.75;4961365;28;20070;-72
2021/10/30 02:30:42;;;;;;;0.50;0.50;;;;;;;11.10;78.46;100475.84;4960769;28;20035;-70
2021/10/30 02:33:07;;;;;;;0.33;0.33;;;;;;;11.09;78.45;100474.06;4961704;28;20037;-71
2021/10/30 02:35:33;;;;;;;0.40;0.40;;;;;;;11.03;78.95;100460.88;4961778;28;20031;-71
2021/10/30 02:37:58;;;;;;;0.40;0.40;;;;;;;11.00;78.91;100458.16;4960971;29;20338;-71
2021/10/30 02:40:24;;;;;;;0.30;0.30;;;;;;;10.96;79.13;100445.88;4961164;28;20060;-70
2021/10/30 02:42:49;;;;;;;0.33;0.33;;;;;;;10.93;79.04;100448.41;4958877;29;20035;-70
2021/10/30 02:45:15;;;;;;;0.40;0.40;;;;;;;10.86;79.31;100444.81;4957241;28;20395;-70
2021/10/30 02:47:40;;;;;;;0.40;0.40;;;;;;;10.83;79.11;100444.75;4960260;28;20030;-70
2021/10/30 02:50:06;;;;;;;0.30;0.30;;;;;;;10.81;79.36;100438.56;4960244;28;20042;-71
2021/10/30 02:52:31;;;;;;;0.23;0.23;;;;;;;10.82;79.47;100436.00;4960549;28;20282;-71
2021/10/30 02:54:57;;;;;;;0.30;0.30;;;;;;;10.79;79.72;100432.41;4958391;29;20038;-70
2021/10/30 02:57:22;;;;;;;0.50;0.50;;;;;;;10.77;79.86;100421.91;4960051;29;20038;-70
2021/10/30 02:59:49;;;;;;;0.37;0.37;;;;;;;10.74;80.31;100429.72;4959880;28;20032;-70
2021/10/30 03:02:14;;;;;;;0.87;0.47;;;;;;;10.74;80.27;100406.13;4957081;28;20027;-70
2021/10/30 03:04:39;;;;;;;0.30;0.30;;;;;;;10.74;80.50;100406.13;4957204;28;20024;-72
2021/10/30 03:07:05;;;;;;;0.40;0.40;;;;;;;10.73;80.57;100401.75;4958774;29;20023;-70
2021/10/30 03:09:30;;;;;;;1.33;0.50;;;;;;;10.76;80.60;100399.19;4959998;29;20111;-71
2021/10/30 03:11:57;;;;;;;0.50;0.50;;;;;;;10.74;80.65;100392.16;4959046;29;20428;-70
2021/10/30 03:14:22;;;;;;;0.30;0.30;;;;;;;10.76;80.54;100398.31;4956236;29;20034;-69
2021/10/30 03:16:48;;;;;;;0.30;0.30;;;;;;;10.76;80.85;100391.34;4959305;28;20051;-70
2021/10/30 03:19:13;;;;;;;0.23;0.23;;;;;;;10.80;80.61;100393.19;4958935;29;20078;-72
2021/10/30 03:21:38;;;;;;;0.30;0.30;;;;;;;10.82;80.77;100385.34;4959889;29;20450;-70
2021/10/30 03:24:04;;;;;;;0.60;0.60;;;;;;;10.84;80.69;100387.13;4959614;28;20035;-70
2021/10/30 03:26:29;;;;;;;0.40;0.40;;;;;;;10.88;80.62;100376.75;4960565;29;20311;-70
2021/10/30 03:28:55;;;;;;;0.20;0.20;;;;;;;10.87;80.63;100381.06;4960627;28;20378;-70
2021/10/30 03:31:20;;;;;;;0.30;0.30;;;;;;;10.88;80.45;100379.34;4960578;28;20353;-70
2021/10/30 03:33:45;;;;;;;0.30;0.30;;;;;;;10.85;80.96;100367.94;4956396;29;20347;-69
2021/10/30 03:36:11;;;;;;;0.20;0.20;;;;;;;10.86;81.42;100358.38;4940524;29;20099;-69
2021/10/30 03:38:37;;;;;;;0.30;0.30;;;;;;;10.89;81.29;100370.63;4941678;29;20042;-69
2021/10/30 03:41:02;;;;;;;0.20;0.20;;;;;;;10.86;81.44;100366.22;4941345;29;20019;-69
2021/10/30 03:43:28;;;;;;;0.20;0.20;;;;;;;10.83;81.97;100366.16;4946456;29;20366;-69
2021/10/30 03:45:54;;;;;;;0.40;0.40;;;;;;;10.81;81.95;100362.63;4959569;28;20386;-69
2021/10/30 03:48:20;;;;;;;0.10;0.10;;;;;;;10.80;82.06;100359.13;4960779;28;20050;-69
2021/10/30 03:50:46;;;;;;;0.30;0.30;;;;;;;10.78;82.05;100360.81;4960698;28;20418;-68
2021/10/30 03:53:11;;;;;;;0.37;0.37;;;;;;;10.78;82.26;100359.94;4960027;28;20126;-69
2021/10/30 03:55:37;;;;;;;0.27;0.27;;;;;;;10.76;82.45;100354.66;4959053;29;20306;-70
2021/10/30 03:58:04;;;;;;;0.40;0.40;;;;;;;10.75;82.62;100350.28;4959203;29;20038;-69
2021/10/30 04:00:29;;;;;;;0.27;0.27;;;;;;;10.75;82.45;100349.41;4960073;28;20055;-69
2021/10/30 04:02:55;;;;;;;1.70;0.63;;;;;;;10.74;82.63;100340.66;4964997;28;20349;-69
2021/10/30 04:05:21;;;;;;;0.37;0.37;;;;;;;10.72;82.72;100342.38;4960279;29;20346;-69
2021/10/30 04:07:46;;;;;;;2.07;1.63;;;;;;;10.71;82.67;100333.63;4959138;28;20091;-70
2021/10/30 04:10:12;;;;;;;6.37;4.67;;;;;;;10.69;82.62;100323.97;4959695;29;20397;-69
2021/10/30 04:12:38;;;;;;;3.30;2.57;;;;;;;10.69;82.96;100327.50;4937246;29;20024;-69
2021/10/30 04:15:04;;;;;;;3.07;2.53;;;;;;;10.67;82.72;100329.19;4940326;29;20327;-69
2021/10/30 04:17:29;;;;;;;0.50;0.50;;;;;;;10.66;82.71;100326.53;4954976;28;20051;-69
2021/10/30 04:19:55;;;;;;;2.90;0.80;;;;;;;10.67;82.70;100320.44;4959847;28;20031;-69
2021/10/30 04:22:20;;;;;;;0.37;0.37;;;;;;;10.66;83.02;100322.16;4960231;28;20111;-68
2021/10/30 04:24:45;;;;;;;0.30;0.30;;;;;;;10.64;82.84;100318.66;4960200;29;20031;-69
2021/10/30 04:27:11;;;;;;;0.20;0.20;;;;;;;10.61;82.86;100321.22;4959434;29;20396;-68
2021/10/30 04:29:36;;;;;;;0.73;0.33;;;;;;;10.60;82.95;100314.22;4959225;28;20054;-68
2021/10/30 04:32:03;;;;;;;0.23;0.23;;;;;;;10.62;82.94;100306.38;4959149;29;20113;-68
2021/10/30 04:37:20;;;;;;;0.23;0.23;;;;;;;10.59;83.17;100299.38;4946417;29;20091;-66
2021/10/30 04:39:47;;;;;;;0.30;0.30;;;;;;;10.57;83.45;100291.47;4940031;28;20374;-65
2021/10/30 04:42:14;;;;;;;0.20;0.20;;;;;;;10.56;83.66;100289.72;4939721;29;20422;-65
2021/10/30 04:44:40;;;;;;;0.17;0.17;;;;;;;10.53;83.97;100287.00;4940029;29;20290;-64
2021/10/30 04:47:06;;;;;;;0.20;0.20;;;;;;;10.50;84.16;100284.34;4948885;29;20031;-64
2021/10/30 04:49:33;;;;;;;2.70;0.60;;;;;;;10.52;83.88;100284.41;4958873;29;20082;-65
2021/10/30 04:51:58;;;;;;;0.20;0.20;;;;;;;10.49;84.24;100285.22;4959278;28;20034;-65
2021/10/30 04:54:23;;;;;;;0.10;0.10;;;;;;;10.47;84.39;100267.69;4958784;29;20039;-65
2021/10/30 04:56:49;;;;;;;0.20;0.20;;;;;;;10.46;84.74;100264.19;4959158;29;20035;-64
2021/10/30 04:59:14;;;;;;;0.20;0.20;;;;;;;10.46;84.81;100271.19;4958545;28;20058;-65
2021/10/30 05:01:39;;;;;;;0.20;0.20;;;;;;;10.47;84.83;100262.47;4958297;29;20087;-65
2021/10/30 05:04:05;;;;;;;0.20;0.20;;;;;;;10.45;84.88;100259.81;4958364;29;20067;-65
2021/10/30 05:06:30;;;;;;;0.10;0.10;;;;;;;10.43;84.94;100251.06;4959112;29;20058;-65
2021/10/30 05:08:55;;;;;;;0.20;0.20;;;;;;;10.42;85.01;100251.91;4958780;29;20053;-67
2021/10/30 05:11:21;;;;;;;0.10;0.10;;;;;;;10.46;84.75;100258.09;4959597;29;20357;-65
2021/10/30 05:13:46;;;;;;;0.07;0.07;;;;;;;10.44;84.76;100251.09;4958470;29;20030;-66
2021/10/30 05:16:12;;;;;;;0.20;0.20;;;;;;;10.43;85.67;100245.81;4957808;28;20567;-67
2021/10/30 05:18:38;;;;;;;0.10;0.10;;;;;;;10.40;85.37;100245.75;4958372;29;20118;-66
2021/10/30 05:21:03;;;;;;;0.20;0.20;;;;;;;10.44;85.57;100243.25;4958397;28;20024;-66
2021/10/30 05:23:28;;;;;;;0.10;0.10;;;;;;;10.45;85.35;100238.88;4959045;28;20050;-66
2021/10/30 05:25:54;;;;;;;0.20;0.20;;;;;;;10.48;85.49;100238.06;4958401;28;20035;-67
2021/10/30 05:28:22;;;;;;;0.10;0.10;;;;;;;10.47;85.64;100234.56;4958340;29;20110;-65
2021/10/30 05:30:51;;;;;;;0.20;0.20;;;;;;;10.50;85.62;100220.63;4957824;29;20035;-67
2021/10/30 05:33:16;;;;;;;0.20;0.20;;;;;;;10.54;85.65;100225.94;4957911;28;20130;-67
2021/10/30 05:35:42;;;;;;;0.10;0.10;;;;;;;10.57;85.52;100219.91;4958668;28;20051;-68
2021/10/30 05:38:09;;;;;;;0.10;0.10;;;;;;;10.57;85.80;100219.91;4957575;29;20311;-67
2021/10/30 05:40:35;;;;;;;0.20;0.20;;;;;;;10.60;85.44;100219.06;4959111;28;20086;-67
2021/10/30 05:43:00;;;;;;;0.00;0.00;;;;;;;10.57;85.47;100207.69;4958837;28;20038;-67
2021/10/30 05:45:26;;;;;;;0.20;0.20;;;;;;;10.60;85.57;100209.50;4958435;28;20028;-67
2021/10/30 05:47:51;;;;;;;0.20;0.20;;;;;;;10.62;85.54;100199.03;4957715;29;20366;-65
2021/10/30 05:50:17;;;;;;;0.10;0.10;;;;;;;10.65;85.34;100189.50;4957241;29;20035;-65
2021/10/30 05:52:42;;;;;;;1.70;0.37;;;;;;;10.67;85.43;100197.38;4957870;28;20079;-65
2021/10/30 05:55:08;;;;;;;0.50;0.50;;;;;;;10.66;85.49;100193.88;4958412;28;20374;-65
2021/10/30 05:57:33;;;;;;;0.30;0.30;;;;;;;10.63;85.46;100185.97;4957356;28;20094;-65
2021/10/30 05:59:59;;;;;;;0.10;0.10;;;;;;;10.63;85.55;100183.34;4962113;28;20118;-67
2021/10/30 06:02:24;;;;;;;0.13;0.13;;;;;;;10.64;85.47;100190.34;4961960;28;20020;-67
2021/10/30 06:04:50;;;;;;;0.10;0.10;;;;;;;10.62;85.72;100199.94;4961851;29;20031;-65
2021/10/30 06:07:15;;;;;;;0.30;0.30;;;;;;;10.63;85.71;100199.06;4969593;28;20282;-67
2021/10/30 06:09:41;;;;;;;0.10;0.10;;;;;;;10.62;85.84;100178.97;4961929;28;20051;-68
2021/10/30 06:12:07;;;;;;;0.10;0.10;;;;;;;10.61;85.90;100181.56;4961184;29;20023;-68
2021/10/30 06:14:32;;;;;;;0.10;0.10;;;;;;;10.63;85.85;100178.13;4962476;28;20034;-66
2021/10/30 06:17:00;;;;;;;0.10;0.10;;;;;;;10.68;85.75;100183.44;4961404;28;20362;-67
2021/10/30 06:19:25;;;;;;;0.10;0.10;;;;;;;10.68;85.62;100180.81;4961125;29;20397;-67
2021/10/30 06:21:51;;;;;;;0.30;0.30;;;;;;;10.70;85.51;100195.72;4961081;29;20114;-67
2021/10/30 06:24:16;;;;;;;0.20;0.20;;;;;;;10.69;85.70;100191.31;4961700;28;20057;-68
2021/10/30 06:26:41;;;;;;;0.10;0.10;;;;;;;10.69;85.91;100178.22;4961173;28;20118;-66
2021/10/30 06:29:07;;;;;;;0.10;0.10;;;;;;;10.68;85.75;100183.44;4961261;29;20100;-65
2021/10/30 06:31:32;;;;;;;0.10;0.10;;;;;;;10.67;85.95;100193.03;4961562;28;20070;-67
2021/10/30 06:33:58;;;;;;;0.23;0.20;;;;;;;10.67;85.95;100185.19;4960400;29;20078;-66
2021/10/30 06:36:23;;;;;;;0.03;0.03;;;;;;;10.68;85.94;100179.09;4960768;29;20031;-66
2021/10/30 06:38:53;;;;;;;0.13;0.13;;;;;;;10.75;85.86;100180.06;4960992;28;20053;-66
2021/10/30 06:41:18;;;;;;;0.10;0.10;;;;;;;10.76;85.61;100170.50;4961713;28;20027;-66
2021/10/30 06:43:44;;;;;;;0.10;0.10;;;;;;;10.77;85.74;100165.25;4961696;29;20313;-66
2021/10/30 06:46:09;;;;;;;0.10;0.10;;;;;;;10.80;85.75;100159.19;4960877;28;20038;-66
2021/10/30 06:48:38;;;;;;;0.03;0.03;;;;;;;10.83;86.09;100161.88;4961024;28;20438;-65
2021/10/30 06:51:04;;;;;;;0.30;0.30;;;;;;;10.86;85.47;100161.91;4961003;28;20045;-66
2021/10/30 06:53:32;;;;;;;0.10;0.10;;;;;;;10.85;85.34;100160.16;4942896;29;20075;-65
2021/10/30 06:55:58;;;;;;;0.20;0.20;;;;;;;10.83;85.71;100149.66;4956301;29;20346;-66
2021/10/30 06:58:27;;;;;;;0.20;0.20;;;;;;;10.81;85.63;100146.13;4960611;29;20027;-66
2021/10/30 07:00:52;;;;;;;0.10;0.10;;;;;;;10.80;85.76;100141.75;4959420;28;20366;-66
2021/10/30 07:03:17;;;;;;;0.10;0.10;;;;;;;10.80;85.63;100139.13;4961197;29;20039;-67
2021/10/30 07:05:43;;;;;;;0.10;0.10;;;;;;;10.81;85.58;100130.44;4960945;28;20396;-66
2021/10/30 07:08:08;;;;;;;0.03;0.03;;;;;;;10.83;85.63;100123.47;4960148;29;20262;-66
2021/10/30 07:10:33;;;;;;;0.10;0.10;;;;;;;10.86;85.02;100114.78;4959508;28;20023;-68
2021/10/30 07:12:59;;;;;;;0.10;0.10;;;;;;;10.87;85.30;100134.88;4960751;28;20030;-66
2021/10/30 07:15:24;;;;;;;0.20;0.20;;;;;;;10.86;85.42;100122.63;4959555;29;20038;-65
2021/10/30 07:17:50;;;;;;;0.10;0.10;;;;;;;10.90;85.42;100120.94;4960784;28;20101;-66
2021/10/30 07:20:15;;;;;;;0.10;0.10;;;;;;;10.92;85.01;100119.22;4960422;28;20118;-67
2021/10/30 07:22:45;;;;;;;0.00;0.00;;;;;;;10.93;84.96;100126.22;4960626;29;20406;-67
2021/10/30 07:25:12;;;;;;;0.20;0.20;;;;;;;10.90;84.96;100129.66;4959706;29;20393;-66
2021/10/30 07:27:38;;;;;;;0.00;0.00;;;;;;;10.90;84.97;100123.56;4960920;28;20023;-68
2021/10/30 07:30:08;;;;;;;0.10;0.10;;;;;;;10.89;84.81;100114.81;4960034;28;20110;-67
2021/10/30 07:32:33;;;;;;;0.20;0.20;;;;;;;10.87;85.43;100111.28;4959516;28;20082;-68
2021/10/30 07:34:58;;;;;;;0.20;0.20;;;;;;;10.89;85.12;100112.19;4960050;28;20464;-67
2021/10/30 07:37:24;;;;;;;0.10;0.10;;;;;;;10.92;84.92;100112.25;4960797;29;20096;-68
2021/10/30 07:39:50;;;;;;;0.20;0.20;;;;;;;10.90;85.18;100113.09;4959203;28;20129;-67
2021/10/30 07:42:15;;;;;;;0.20;0.20;;;;;;;10.86;85.06;100109.53;4960150;28;20035;-67
2021/10/30 07:44:41;;;;;;;0.20;0.20;;;;;;;10.88;85.34;100104.34;4959099;28;20047;-65
2021/10/30 07:47:07;;;;;;;0.10;0.10;;;;;;;10.86;85.30;100105.16;4957559;28;20422;-64
2021/10/30 07:49:33;;;;;;;0.20;0.20;;;;;;;10.88;85.28;100099.97;4957995;28;20034;-67
2021/10/30 07:52:00;;;;;;;0.20;0.20;;;;;;;10.86;85.46;100099.94;4957610;29;20416;-67
2021/10/30 07:54:25;;;;;;;0.10;0.10;;;;;;;10.85;85.46;100100.78;4959493;28;20066;-67
2021/10/30 07:56:51;;;;;;;0.20;0.20;;;;;;;10.91;85.27;100093.91;4958483;28;20402;-66
2021/10/30 07:59:16;;;;;;;0.10;0.10;;;;;;;10.94;85.03;100092.19;4958837;28;20031;-65
2021/10/30 08:01:42;;;;;;;0.20;0.20;;;;;;;10.95;85.19;100088.72;4958605;28;20035;-65
2021/10/30 08:04:07;;;;;;;0.10;0.10;;;;;;;10.92;85.36;100096.53;4958647;29;20283;-66
2021/10/30 08:06:32;;;;;;;0.10;0.10;;;;;;;10.91;85.48;100092.16;4958957;28;20038;-65
2021/10/30 08:08:58;;;;;;;0.23;0.23;;;;;;;10.94;85.28;100084.34;4957263;29;20385;-65
2021/10/30 08:11:24;;;;;;;0.20;0.20;;;;;;;10.91;85.50;100089.53;4958831;29;20031;-64
2021/10/30 08:13:49;;;;;;;0.20;0.20;;;;;;;10.96;85.28;100092.22;4958989;28;20114;-64
2021/10/30 08:16:14;;;;;;;0.00;0.00;;;;;;;10.97;85.23;100084.38;4957757;29;20342;-64
2021/10/30 08:18:40;;;;;;;0.20;0.20;;;;;;;10.98;85.39;100080.03;4958313;28;20037;-64
2021/10/30 08:21:06;;;;;;;0.30;0.30;;;;;;;10.96;85.03;100082.63;4957601;28;20149;-64
2021/10/30 08:23:31;;;;;;;0.20;0.20;;;;;;;10.98;85.61;100085.28;4958636;28;20046;-64
2021/10/30 08:25:56;;;;;;;0.20;0.20;;;;;;;11.01;85.14;100090.53;4957387;29;20062;-64
2021/10/30 08:28:22;;;;;;;0.13;0.13;;;;;;;10.97;85.53;100094.84;4958572;29;20019;-64
2021/10/30 08:30:47;;;;;;;0.20;0.20;;;;;;;11.03;85.33;100099.31;4957772;29;20069;-64
2021/10/30 08:33:13;;;;;;;0.07;0.07;;;;;;;11.06;85.13;100098.47;4959223;28;20294;-65
2021/10/30 08:35:40;;;;;;;0.10;0.10;;;;;;;11.13;84.86;100090.72;4942185;28;20027;-65
2021/10/30 08:38:09;;;;;;;0.10;0.10;;;;;;;11.14;84.94;100081.13;4954026;29;20035;-64
2021/10/30 08:40:38;;;;;;;0.10;0.10;;;;;;;11.12;85.02;100078.50;4952812;29;20035;-64
2021/10/30 08:43:03;;;;;;;0.37;0.37;;;;;;;11.17;84.94;100075.03;4949444;28;20035;-65
2021/10/30 08:45:32;;;;;;;0.10;0.10;;;;;;;11.20;84.72;100062.88;4954046;29;20050;-67
2021/10/30 08:48:00;;;;;;;0.10;0.10;;;;;;;11.23;84.39;100065.53;4957133;28;20101;-66
2021/10/30 08:50:25;;;;;;;0.10;0.10;;;;;;;11.28;84.20;100068.22;4959655;28;20031;-64
2021/10/30 08:52:50;;;;;;;0.10;0.10;;;;;;;11.25;84.42;100071.69;4958780;28;20303;-64
2021/10/30 08:55:16;;;;;;;0.20;0.20;;;;;;;11.26;84.57;100068.19;4958949;28;20425;-64
2021/10/30 08:57:41;;;;;;;0.10;0.10;;;;;;;11.22;84.55;100066.38;4958721;29;20034;-65
2021/10/30 09:00:27;;;;;;;0.10;0.10;;;;;;;11.21;85.00;100067.25;4957237;28;20361;-66
2021/10/30 09:03:00;;;;;;;0.20;0.20;;;;;;;11.22;85.05;100061.13;4958415;28;20035;-67
2021/10/30 09:05:27;;;;;;;0.20;0.20;;;;;;;11.18;85.26;100061.97;4966603;28;20345;-66
2021/10/30 09:07:55;;;;;;;0.20;0.20;;;;;;;11.19;85.10;100058.47;4958902;28;20061;-68
2021/10/30 09:10:23;;;;;;;0.10;0.10;;;;;;;11.23;85.15;100057.69;4958561;28;20030;-67
2021/10/30 09:12:54;;;;;;;0.00;0.00;;;;;;;11.22;85.25;100066.38;4942427;29;20085;-68
2021/10/30 09:15:33;;;;;;;0.00;0.00;;;;;;;11.21;85.30;100056.75;4957947;29;20094;-67
2021/10/30 09:17:59;;;;;;;0.20;0.20;;;;;;;11.18;85.74;100055.84;4958735;28;20035;-67
2021/10/30 09:20:32;;;;;;;0.10;0.10;;;;;;;11.17;85.60;100054.06;4959482;28;20353;-67
2021/10/30 09:22:57;;;;;;;0.10;0.10;;;;;;;11.17;85.82;100049.72;4958395;28;20043;-66
2021/10/30 09:25:23;;;;;;;0.10;0.10;;;;;;;11.19;85.55;100049.72;4958691;29;20035;-68
2021/10/30 09:27:54;;;;;;;0.10;0.10;;;;;;;11.20;85.48;100036.66;4958210;29;20027;-67
2021/10/30 09:30:40;;;;;;;0.20;0.20;;;;;;;11.17;85.63;100043.59;4958388;28;20050;-67
2021/10/30 09:33:08;;;;;;;0.13;0.13;;;;;;;11.16;85.90;100050.59;4956888;29;20109;-67
2021/10/30 09:35:42;;;;;;;0.00;0.00;;;;;;;11.19;85.90;100036.63;4958009;28;20602;-67
2021/10/30 09:38:25;;;;;;;0.20;0.20;;;;;;;11.21;85.66;100045.41;4957772;29;20113;-69
2021/10/30 09:40:51;;;;;;;0.20;0.20;;;;;;;11.23;85.65;100039.34;4958237;28;20031;-69
2021/10/30 09:43:19;;;;;;;0.13;0.13;;;;;;;11.22;85.94;100045.41;4942180;29;20037;-67
2021/10/30 09:45:48;;;;;;;0.10;0.10;;;;;;;11.24;85.80;100034.97;4958269;28;20071;-66
2021/10/30 09:48:22;;;;;;;0.00;0.00;;;;;;;11.25;85.48;100040.22;4958287;28;20027;-68
2021/10/30 09:50:49;;;;;;;0.00;0.00;;;;;;;11.23;86.21;100034.09;4945986;29;20339;-68
2021/10/30 09:53:32;;;;;;;0.10;0.10;;;;;;;11.24;86.02;100046.34;4956199;28;20051;-70
2021/10/30 09:56:06;;;;;;;0.40;0.40;;;;;;;11.34;85.69;100031.59;4957275;28;20378;-68
2021/10/30 09:58:42;;;;;;;0.10;0.10;;;;;;;11.37;85.62;100034.25;4951297;28;20035;-66
2021/10/30 10:01:07;;;;;;;;;;;;;;;11.33;85.78;100028.97;4942820;29;20402;-68
2021/10/30 10:03:33;;;;;;;0.20;0.20;;;;;;;11.36;85.44;100036.84;4947446;28;19949;-67
2021/10/30 10:06:07;;;;;;;0.13;0.13;;;;;;;11.35;85.34;100033.38;4957553;28;20027;-67
2021/10/30 10:08:37;;;;;;;0.10;0.10;;;;;;;11.38;85.60;100030.78;4955087;29;20028;-67
2021/10/30 10:11:02;;;;;;;0.10;0.10;;;;;;;11.34;85.68;100030.72;4957693;28;20035;-68
2021/10/30 10:13:28;;;;;;;0.10;0.10;;;;;;;11.41;85.11;100025.56;4957305;28;20371;-68
2021/10/30 10:15:54;;;;;;;0.10;0.10;;;;;;;11.43;85.64;100038.69;4956989;29;20077;-67
2021/10/30 10:18:21;;;;;;;0.10;0.10;;;;;;;11.45;85.87;100017.75;4958027;28;20167;-67
2021/10/30 10:20:47;;;;;;;0.10;0.10;;;;;;;11.46;85.65;100025.59;4958304;28;20082;-68
2021/10/30 10:23:14;;;;;;;0.20;0.20;;;;;;;11.49;85.42;100028.28;4953546;29;20446;-67
2021/10/30 10:25:48;;;;;;;0.00;0.00;;;;;;;11.52;85.33;100028.31;4938251;28;20106;-66
2021/10/30 10:28:26;;;;;;;0.13;0.13;;;;;;;11.53;85.33;100026.56;4949621;28;20027;-67
2021/10/30 10:31:01;;;;;;;0.10;0.10;;;;;;;11.49;85.50;100020.41;4957946;28;20042;-67
2021/10/30 10:33:27;;;;;;;0.20;0.20;;;;;;;11.46;85.59;100019.50;4954972;28;20117;-66
2021/10/30 10:36:21;;;;;;;0.10;0.10;;;;;;;11.49;85.39;100009.03;4950957;29;20121;-66
2021/10/30 10:38:53;;;;;;;0.10;0.10;;;;;;;11.49;86.26;100007.31;4957185;28;20058;-65
2021/10/30 10:41:36;;;;;;;0.17;0.17;;;;;;;11.53;84.98;100008.22;4958265;28;20110;-67
2021/10/30 10:44:03;;;;;;;0.20;0.20;;;;;;;11.49;85.55;100001.16;4951937;28;20306;-68
2021/10/30 10:46:30;;;;;;;0.30;0.30;;;;;;;11.52;86.01;99995.97;4952635;28;20067;-70
2021/10/30 10:49:16;;;;;;;0.30;0.30;;;;;;;11.56;85.71;99996.91;4960340;28;20039;-67
2021/10/30 10:51:54;;;;;;;0.20;0.20;;;;;;;11.55;85.67;100001.25;4959614;29;20350;-68
2021/10/30 10:54:19;;;;;;;0.00;0.00;;;;;;;11.56;85.63;99992.50;4959842;29;20386;-66
2021/10/30 10:56:57;;;;;;;0.20;0.20;;;;;;;11.57;85.71;99999.50;4961339;29;20069;-66
2021/10/30 10:59:42;;;;;;;0.10;0.10;;;;;;;11.59;85.87;99987.28;4959144;28;20054;-69
2021/10/30 11:02:18;;;;;;;0.10;0.10;;;;;;;11.57;86.09;99983.78;4956843;29;20147;-66
2021/10/30 11:05:02;;;;;;;;;;;;;;;11.58;86.22;99988.16;4957755;28;20158;-68
2021/10/30 11:07:27;;;;;;;0.10;0.10;;;;;;;11.59;85.96;99982.03;4958675;29;19975;-65
2021/10/30 11:09:54;;;;;;;0.10;0.10;;;;;;;11.59;85.89;99983.81;4957653;29;20438;-65
2021/10/30 11:12:21;;;;;;;0.20;0.20;;;;;;;11.61;85.75;99982.06;4958650;28;20073;-67
2021/10/30 11:15:08;;;;;;;0.10;0.10;;;;;;;11.59;85.90;99976.81;4954689;29;20479;-66
2021/10/30 11:17:35;;;;;;;0.30;0.30;;;;;;;11.61;85.88;99979.44;4958622;29;20275;-66
2021/10/30 11:20:12;;;;;;;0.07;0.07;;;;;;;11.63;85.70;99968.13;4956317;28;20121;-68
2021/10/30 11:22:52;;;;;;;0.20;0.20;;;;;;;11.65;86.10;99953.28;4958512;28;20039;-68
2021/10/30 11:25:18;;;;;;;0.20;0.20;;;;;;;11.67;85.77;99961.16;4956734;29;20031;-70
2021/10/30 11:27:53;;;;;;;0.10;0.10;;;;;;;11.70;85.76;99957.69;4957437;28;20413;-69
2021/10/30 11:30:37;;;;;;;0.20;0.20;;;;;;;11.72;85.96;99953.34;4958960;28;20480;-70